| Date | Time | Temp. (oF) | Dew Point (oF) | Rel. Hum. (%) | Press. (in.) | Wind Dir. | Wind Speed (mph) | Hourly Rainfall (in.) |
|
|---|---|---|---|---|---|---|---|---|---|
| 1 | 04/17 | 00:00 | 45 | 27 | 50 | 30.41 | SW | 1 | 0.00 |
| 2 | 04/16 | 23:00 | 46 | 31 | 56 | 30.42 | S | 0 | 0.00 |
| 3 | 04/16 | 22:00 | 49 | 30 | 49 | 30.43 | SE | 0 | 0.00 |
| 4 | 04/16 | 21:00 | 53 | 27 | 37 | 30.42 | SE | 0 | 0.00 |
| 5 | 04/16 | 20:00 | 57 | 24 | 29 | 30.41 | SE | 0 | 0.00 |
| 6 | 04/16 | 19:00 | 59 | 26 | 29 | 30.42 | E | 3 | 0.00 |
| 7 | 04/16 | 18:00 | 61 | 29 | 30 | 30.42 | ESE | 6 | 0.00 |
| 8 | 04/16 | 17:00 | 62 | 29 | 30 | 30.43 | ENE | 2 | 0.00 |
| 9 | 04/16 | 16:00 | 62 | 29 | 29 | 30.46 | ESE | 4 | 0.00 |
| 10 | 04/16 | 15:00 | 61 | 29 | 30 | 30.49 | ENE | 8 | 0.00 |
| 11 | 04/16 | 14:00 | 60 | 27 | 29 | 30.52 | NW | 4 | 0.00 |
| 12 | 04/16 | 13:00 | 58 | 29 | 34 | 30.54 | ENE | 14 | 0.00 |
| 13 | 04/16 | 12:00 | 56 | 25 | 31 | 30.57 | NNE | 8 | 0.00 |
| 14 | 04/16 | 11:00 | 53 | 23 | 32 | 30.60 | NNE | 8 | 0.00 |
| 15 | 04/16 | 10:00 | 49 | 24 | 38 | 30.62 | NE | 6 | 0.00 |
| 16 | 04/16 | 09:00 | 44 | 28 | 55 | 30.62 | NE | 5 | 0.00 |
| 17 | 04/16 | 08:00 | 33 | 31 | 96 | 30.61 | NNW | 1 | 0.00 |
| 18 | 04/16 | 07:00 | 29 | 26 | 92 | 30.58 | NNW | 0 | 0.00 |
| 19 | 04/16 | 06:00 | 30 | 27 | 91 | 30.55 | NNW | 0 | 0.00 |
| 20 | 04/16 | 05:00 | 31 | 27 | 88 | 30.54 | NNW | 0 | 0.00 |
| 21 | 04/16 | 04:00 | 33 | 28 | 83 | 30.53 | NNW | 0 | 0.00 |
| 22 | 04/16 | 03:00 | 35 | 27 | 73 | 30.54 | NNW | 0 | 0.00 |
| 23 | 04/16 | 02:00 | 37 | 26 | 65 | 30.53 | E | 0 | 0.00 |
| 24 | 04/16 | 01:00 | 40 | 26 | 58 | 30.53 | E | 2 | 0.00 |